Time;durP1;ratioP1;P1;durP2;ratioP2;P2;SDS_P1;SDS_P2;PMS_P1;PMS_P2;Temp;Humidity;BMP_temperature;BMP_pressure;BME280_temperature;BME280_humidity;BME280_pressure;Samples;Min_cycle;Max_cycle;Signal;HPM_P1;HPM_P2
2023/11/13 00:00:05;;;;;;;2.15;2.05;;;;;;;;;;5048234;28;20130;-58
2023/11/13 00:02:34;;;;;;;2.28;2.17;;;;;;;;;;5047070;28;20390;-59
2023/11/13 00:05:04;;;;;;;2.35;2.25;;;;;;;;;;5045361;28;20064;-59
2023/11/13 00:07:32;;;;;;;2.40;2.30;;;;;;;;;;5047544;28;20494;-59
2023/11/13 00:10:01;;;;;;;2.60;2.50;;;;;;;;;;5047251;28;20107;-59
2023/11/13 00:12:29;;;;;;;2.45;2.35;;;;;;;;;;5048742;28;20092;-58
2023/11/13 00:14:57;;;;;;;2.40;2.30;;;;;;;;;;5047924;28;20135;-59
2023/11/13 00:17:27;;;;;;;2.58;2.47;;;;;;;;;;5047361;28;20044;-59
2023/11/13 00:19:57;;;;;;;2.70;2.60;;;;;;;;;;5044659;28;20049;-59
2023/11/13 00:22:26;;;;;;;2.65;2.55;;;;;;;;;;5046796;28;20045;-59
2023/11/13 00:24:55;;;;;;;2.60;2.50;;;;;;;;;;5048076;28;20045;-59
2023/11/13 00:27:24;;;;;;;2.60;2.50;;;;;;;;;;5040092;28;20636;-58
2023/11/13 00:29:52;;;;;;;2.70;2.60;;;;;;;;;;5046057;28;20079;-59
2023/11/13 00:32:20;;;;;;;2.50;2.40;;;;;;;;;;5047088;28;20084;-59
2023/11/13 00:34:50;;;;;;;2.70;2.50;;;;;;;;;;5046878;28;20103;-59
2023/11/13 00:37:18;;;;;;;2.50;2.40;;;;;;;;;;5046735;28;20115;-58
2023/11/13 00:39:47;;;;;;;2.50;2.40;;;;;;;;;;5047475;28;20456;-58
2023/11/13 00:42:16;;;;;;;2.63;2.53;;;;;;;;;;5045205;28;20056;-58
2023/11/13 00:44:44;;;;;;;2.72;2.63;;;;;;;;;;5046807;28;20037;-59
2023/11/13 00:47:13;;;;;;;2.92;2.60;;;;;;;;;;5047068;28;20398;-58
2023/11/13 00:49:41;;;;;;;2.95;2.72;;;;;;;;;;5046434;28;20052;-59
2023/11/13 00:52:11;;;;;;;2.50;2.40;;;;;;;;;;5042473;28;20521;-59
2023/11/13 00:54:39;;;;;;;3.00;2.80;;;;;;;;;;5047408;28;20059;-59
2023/11/13 00:57:08;;;;;;;2.90;2.70;;;;;;;;;;5044850;28;20099;-59
2023/11/13 00:59:36;;;;;;;2.60;2.50;;;;;;;;;;5047638;28;20052;-58
2023/11/13 01:02:05;;;;;;;2.90;2.72;;;;;;;;;;5046150;28;20053;-57
2023/11/13 01:04:33;;;;;;;2.72;2.63;;;;;;;;;;5048797;28;20055;-59
2023/11/13 01:07:03;;;;;;;2.65;2.55;;;;;;;;;;5049401;28;20056;-59
2023/11/13 01:09:32;;;;;;;2.83;2.72;;;;;;;;;;5049954;28;20285;-59
2023/11/13 01:12:01;;;;;;;3.00;2.80;;;;;;;;;;5050187;28;20494;-58
2023/11/13 01:14:29;;;;;;;2.90;2.70;;;;;;;;;;5050755;28;20041;-58
2023/11/13 01:16:58;;;;;;;3.05;2.80;;;;;;;;;;5050195;28;20151;-59
2023/11/13 01:19:27;;;;;;;2.90;2.70;;;;;;;;;;5050349;28;20171;-59
2023/11/13 01:21:56;;;;;;;2.60;2.50;;;;;;;;;;5048715;28;20084;-59
2023/11/13 01:24:24;;;;;;;2.53;2.42;;;;;;;;;;5051127;28;20410;-58
2023/11/13 01:26:54;;;;;;;3.10;2.80;;;;;;;;;;5048647;28;20140;-58
2023/11/13 01:29:22;;;;;;;8.50;3.10;;;;;;;;;;5049295;28;20049;-58
2023/11/13 01:31:50;;;;;;;3.33;3.03;;;;;;;;;;5043135;28;20481;-59
2023/11/13 01:34:19;;;;;;;3.15;2.97;;;;;;;;;;5050204;28;20161;-59
2023/11/13 01:36:48;;;;;;;3.05;2.85;;;;;;;;;;5049375;28;20040;-59
2023/11/13 01:39:16;;;;;;;3.00;2.80;;;;;;;;;;5049579;28;20057;-58
2023/11/13 01:41:45;;;;;;;3.00;2.80;;;;;;;;;;5049625;28;20144;-58
2023/11/13 01:44:14;;;;;;;3.30;3.10;;;;;;;;;;5050278;28;20048;-58
2023/11/13 01:46:43;;;;;;;2.80;2.60;;;;;;;;;;5047110;28;20057;-59
2023/11/13 01:49:12;;;;;;;2.85;2.72;;;;;;;;;;5048716;28;20365;-59
2023/11/13 01:51:40;;;;;;;3.22;3.03;;;;;;;;;;5049051;28;20124;-58
2023/11/13 01:54:09;;;;;;;3.47;3.28;;;;;;;;;;5046103;28;20045;-60
2023/11/13 01:56:37;;;;;;;3.08;2.95;;;;;;;;;;5043022;28;20407;-58
2023/11/13 01:59:06;;;;;;;3.00;2.90;;;;;;;;;;5049843;28;20044;-59
2023/11/13 02:01:36;;;;;;;3.08;2.88;;;;;;;;;;5050638;28;20110;-59
2023/11/13 02:04:04;;;;;;;3.95;3.20;;;;;;;;;;5050113;28;20099;-59
2023/11/13 02:06:33;;;;;;;3.22;3.03;;;;;;;;;;5045654;28;20072;-59
2023/11/13 02:09:02;;;;;;;2.78;2.67;;;;;;;;;;5047346;28;20045;-60
2023/11/13 02:11:30;;;;;;;3.28;3.08;;;;;;;;;;5049651;28;20075;-59
2023/11/13 02:13:59;;;;;;;3.30;3.10;;;;;;;;;;5050146;28;20064;-59
2023/11/13 02:16:27;;;;;;;3.30;3.10;;;;;;;;;;5050063;28;20049;-59
2023/11/13 02:18:57;;;;;;;3.10;2.90;;;;;;;;;;5048563;28;20045;-59
2023/11/13 02:21:26;;;;;;;3.50;3.30;;;;;;;;;;5048909;28;20044;-62
2023/11/13 02:23:57;;;;;;;3.50;3.30;;;;;;;;;;5048728;28;20066;-58
2023/11/13 02:26:25;;;;;;;3.58;3.38;;;;;;;;;;5049143;28;20045;-58
2023/11/13 02:28:54;;;;;;;3.08;2.97;;;;;;;;;;5049658;28;20045;-58
2023/11/13 02:31:22;;;;;;;3.22;3.03;;;;;;;;;;5049047;28;20077;-58
2023/11/13 02:33:50;;;;;;;3.55;3.28;;;;;;;;;;5049927;28;20482;-59
2023/11/13 02:36:19;;;;;;;3.15;2.95;;;;;;;;;;5049122;28;20103;-58
2023/11/13 02:38:48;;;;;;;3.90;3.60;;;;;;;;;;5048480;28;20069;-59
2023/11/13 02:41:17;;;;;;;3.40;3.20;;;;;;;;;;5047129;28;20095;-59
2023/11/13 02:43:46;;;;;;;3.38;3.17;;;;;;;;;;5050091;28;20049;-58
2023/11/13 02:46:14;;;;;;;3.15;2.95;;;;;;;;;;5047292;28;20075;-59
2023/11/13 02:48:42;;;;;;;4.15;3.85;;;;;;;;;;5048564;28;20113;-59
2023/11/13 02:51:11;;;;;;;3.95;3.65;;;;;;;;;;5047350;28;20142;-59
2023/11/13 02:53:39;;;;;;;3.80;3.60;;;;;;;;;;5043130;28;20528;-59
2023/11/13 02:56:08;;;;;;;3.33;3.13;;;;;;;;;;5047648;28;20052;-59
2023/11/13 02:58:37;;;;;;;3.15;2.97;;;;;;;;;;5048579;28;20080;-60
2023/11/13 03:01:06;;;;;;;3.60;3.40;;;;;;;;;;5048668;28;20077;-58
2023/11/13 03:03:35;;;;;;;3.65;3.45;;;;;;;;;;5044952;28;20502;-60
2023/11/13 03:06:03;;;;;;;3.50;3.30;;;;;;;;;;5045558;28;20064;-59
2023/11/13 03:08:32;;;;;;;3.58;3.38;;;;;;;;;;5049077;28;20053;-60
2023/11/13 03:11:00;;;;;;;3.58;3.38;;;;;;;;;;5047109;28;20717;-59
2023/11/13 03:13:28;;;;;;;3.45;3.25;;;;;;;;;;5048822;28;20489;-60
2023/11/13 03:15:57;;;;;;;4.22;3.92;;;;;;;;;;5047871;28;20088;-59
2023/11/13 03:18:26;;;;;;;3.33;3.13;;;;;;;;;;5048591;28;20494;-62
2023/11/13 03:20:55;;;;;;;3.33;3.13;;;;;;;;;;5047159;28;20045;-60
2023/11/13 03:23:23;;;;;;;3.90;3.60;;;;;;;;;;5044900;28;20136;-59
2023/11/13 03:25:51;;;;;;;3.85;3.58;;;;;;;;;;5048384;28;20456;-60
2023/11/13 03:28:20;;;;;;;3.20;3.00;;;;;;;;;;5045901;28;20112;-59
2023/11/13 03:30:50;;;;;;;3.60;3.40;;;;;;;;;;5042505;28;20041;-59
2023/11/13 03:33:20;;;;;;;3.63;3.42;;;;;;;;;;5046363;28;20098;-59
2023/11/13 03:35:51;;;;;;;3.67;3.47;;;;;;;;;;5047127;28;20052;-60
2023/11/13 03:38:20;;;;;;;4.03;3.83;;;;;;;;;;5047558;28;20103;-61
2023/11/13 03:40:48;;;;;;;4.07;3.78;;;;;;;;;;5047360;28;20049;-59
2023/11/13 03:43:16;;;;;;;4.32;4.03;;;;;;;;;;5047884;28;20509;-59
2023/11/13 03:45:45;;;;;;;3.80;3.60;;;;;;;;;;5048538;28;20045;-59
2023/11/13 03:48:14;;;;;;;3.47;3.28;;;;;;;;;;5047502;28;20044;-59
2023/11/13 03:50:44;;;;;;;3.17;2.97;;;;;;;;;;5047110;28;20154;-60
2023/11/13 03:53:12;;;;;;;3.83;3.60;;;;;;;;;;5045808;28;20103;-59
2023/11/13 03:55:40;;;;;;;3.80;3.50;;;;;;;;;;5041988;28;20044;-59
2023/11/13 03:58:09;;;;;;;4.25;3.95;;;;;;;;;;5048237;28;20107;-58
2023/11/13 04:00:38;;;;;;;3.55;3.35;;;;;;;;;;5047837;28;20136;-59
2023/11/13 04:03:06;;;;;;;3.53;3.33;;;;;;;;;;5047251;28;20048;-59
2023/11/13 04:05:35;;;;;;;3.92;3.65;;;;;;;;;;5045521;28;20059;-59
2023/11/13 04:08:05;;;;;;;3.70;3.50;;;;;;;;;;5046810;28;20049;-59
2023/11/13 04:10:34;;;;;;;3.78;3.50;;;;;;;;;;5046375;28;20045;-59
2023/11/13 04:13:02;;;;;;;3.47;3.28;;;;;;;;;;5047525;28;20049;-59
2023/11/13 04:15:31;;;;;;;3.97;3.72;;;;;;;;;;5046278;28;20096;-59
2023/11/13 04:17:59;;;;;;;3.88;3.67;;;;;;;;;;5037575;28;20450;-59
2023/11/13 04:20:28;;;;;;;3.97;3.70;;;;;;;;;;5045856;28;20490;-59
2023/11/13 04:22:56;;;;;;;4.22;3.92;;;;;;;;;;5047259;28;20387;-59
2023/11/13 04:25:27;;;;;;;3.85;3.58;;;;;;;;;;5046595;28;20556;-59
2023/11/13 04:27:57;;;;;;;3.88;3.58;;;;;;;;;;5045338;28;20076;-59
2023/11/13 04:30:25;;;;;;;3.38;3.17;;;;;;;;;;5045156;28;20080;-60
2023/11/13 04:32:53;;;;;;;3.83;3.60;;;;;;;;;;5044839;28;20080;-59
2023/11/13 04:35:22;;;;;;;3.25;3.05;;;;;;;;;;5046871;28;20047;-59
2023/11/13 04:37:50;;;;;;;3.60;3.40;;;;;;;;;;5046622;28;20041;-59
2023/11/13 04:40:19;;;;;;;3.60;3.40;;;;;;;;;;5047500;28;20084;-58
2023/11/13 04:42:49;;;;;;;3.53;3.33;;;;;;;;;;5045571;28;20052;-59
2023/11/13 04:45:17;;;;;;;4.05;3.78;;;;;;;;;;5035533;28;20052;-59
2023/11/13 04:47:46;;;;;;;3.78;3.50;;;;;;;;;;5046384;28;20053;-59
2023/11/13 04:50:14;;;;;;;3.50;3.30;;;;;;;;;;5046101;28;20041;-60
2023/11/13 04:52:43;;;;;;;3.60;3.40;;;;;;;;;;5047045;28;20076;-59
2023/11/13 04:55:12;;;;;;;3.15;2.95;;;;;;;;;;5047443;28;20053;-59
2023/11/13 04:57:41;;;;;;;7.00;4.05;;;;;;;;;;5046512;28;20106;-59
2023/11/13 05:00:12;;;;;;;3.08;2.88;;;;;;;;;;5041683;28;20045;-59
2023/11/13 05:02:41;;;;;;;3.97;3.67;;;;;;;;;;5044244;28;20068;-59
2023/11/13 05:05:11;;;;;;;3.78;3.47;;;;;;;;;;5046589;28;20065;-59
2023/11/13 05:07:39;;;;;;;3.40;3.15;;;;;;;;;;5045971;28;20053;-59
2023/11/13 05:10:10;;;;;;;3.80;3.50;;;;;;;;;;5047250;28;20045;-59
2023/11/13 05:12:39;;;;;;;3.50;3.30;;;;;;;;;;5046969;28;20068;-58
2023/11/13 05:15:09;;;;;;;3.80;3.60;;;;;;;;;;5044695;28;20095;-61
2023/11/13 05:17:38;;;;;;;3.53;3.25;;;;;;;;;;5041176;28;21106;-58
2023/11/13 05:20:07;;;;;;;3.40;3.10;;;;;;;;;;5045421;28;20116;-60
2023/11/13 05:22:36;;;;;;;3.63;3.33;;;;;;;;;;5046006;28;20270;-58
2023/11/13 05:25:04;;;;;;;3.20;3.00;;;;;;;;;;5040255;28;20049;-59
2023/11/13 05:27:33;;;;;;;3.38;3.17;;;;;;;;;;5044870;28;20037;-59
2023/11/13 05:30:01;;;;;;;3.47;3.28;;;;;;;;;;5043538;28;20107;-59
2023/11/13 05:32:30;;;;;;;3.15;2.95;;;;;;;;;;5046447;28;20508;-61
2023/11/13 05:34:59;;;;;;;3.17;2.97;;;;;;;;;;5042939;28;20045;-59
2023/11/13 05:37:28;;;;;;;3.00;2.80;;;;;;;;;;5043173;28;20126;-58
2023/11/13 05:39:56;;;;;;;3.38;2.72;;;;;;;;;;5045598;28;20048;-59
2023/11/13 05:42:25;;;;;;;3.22;3.03;;;;;;;;;;5039999;28;20071;-59
2023/11/13 05:44:54;;;;;;;2.55;2.45;;;;;;;;;;5043372;28;20049;-59
2023/11/13 05:47:22;;;;;;;2.75;2.50;;;;;;;;;;5045366;28;20067;-60
2023/11/13 05:49:51;;;;;;;2.60;2.50;;;;;;;;;;5041256;28;20053;-62
2023/11/13 05:52:21;;;;;;;2.58;2.40;;;;;;;;;;5045603;28;20128;-58
2023/11/13 05:54:50;;;;;;;2.60;2.40;;;;;;;;;;5046540;28;20437;-58
2023/11/13 05:57:19;;;;;;;2.50;2.30;;;;;;;;;;5048851;28;20045;-59
2023/11/13 05:59:47;;;;;;;1.92;1.83;;;;;;;;;;5044579;28;20061;-59
2023/11/13 06:02:17;;;;;;;2.20;2.00;;;;;;;;;;5044326;28;20521;-60
2023/11/13 06:04:46;;;;;;;2.85;1.85;;;;;;;;;;5047935;28;20524;-59
2023/11/13 06:07:14;;;;;;;3.53;2.15;;;;;;;;;;5048030;28;20055;-59
2023/11/13 06:09:44;;;;;;;2.15;2.00;;;;;;;;;;5048952;28;20052;-60
2023/11/13 06:12:13;;;;;;;2.00;1.88;;;;;;;;;;5049202;28;20052;-59
2023/11/13 06:14:41;;;;;;;2.00;1.90;;;;;;;;;;5049367;28;20080;-58
2023/11/13 06:17:09;;;;;;;2.38;2.17;;;;;;;;;;5045052;28;20053;-58
2023/11/13 06:19:39;;;;;;;2.17;1.90;;;;;;;;;;5048321;28;20499;-60
2023/11/13 06:22:09;;;;;;;2.65;2.45;;;;;;;;;;5049990;28;20049;-61
2023/11/13 06:24:38;;;;;;;3.40;2.15;;;;;;;;;;5046250;28;20513;-59
2023/11/13 06:27:08;;;;;;;2.25;1.90;;;;;;;;;;5043703;28;20127;-60
2023/11/13 06:29:37;;;;;;;2.05;1.88;;;;;;;;;;5040202;28;20070;-60
2023/11/13 06:32:07;;;;;;;1.98;1.88;;;;;;;;;;5048997;28;20053;-61
2023/11/13 06:34:35;;;;;;;1.90;1.80;;;;;;;;;;5050751;28;20049;-60
2023/11/13 06:37:04;;;;;;;2.00;1.90;;;;;;;;;;5048438;28;20068;-60
2023/11/13 06:39:33;;;;;;;2.47;2.28;;;;;;;;;;5050588;28;20040;-60
2023/11/13 06:42:01;;;;;;;3.38;2.00;;;;;;;;;;5047765;28;20107;-59
2023/11/13 06:44:31;;;;;;;1.85;1.70;;;;;;;;;;5049804;28;20390;-60
2023/11/13 06:46:59;;;;;;;3.08;1.90;;;;;;;;;;5048708;28;20049;-59
2023/11/13 06:49:28;;;;;;;2.28;2.03;;;;;;;;;;5049633;28;20055;-60
2023/11/13 06:51:56;;;;;;;2.13;2.03;;;;;;;;;;5049205;28;20049;-60
2023/11/13 06:54:25;;;;;;;2.10;2.00;;;;;;;;;;5049936;28;20111;-60
2023/11/13 06:56:53;;;;;;;2.95;1.80;;;;;;;;;;5048832;28;20041;-60
2023/11/13 06:59:21;;;;;;;1.90;1.80;;;;;;;;;;5048664;28;20124;-59
2023/11/13 07:01:51;;;;;;;2.13;1.90;;;;;;;;;;5047610;28;20041;-60
2023/11/13 07:04:20;;;;;;;2.00;1.90;;;;;;;;;;5048773;28;20083;-60
2023/11/13 07:06:48;;;;;;;1.70;1.60;;;;;;;;;;5047381;28;20410;-59
2023/11/13 07:09:17;;;;;;;1.80;1.70;;;;;;;;;;5025221;28;20076;-59
2023/11/13 07:11:47;;;;;;;1.75;1.65;;;;;;;;;;5026957;28;20092;-60
2023/11/13 07:14:16;;;;;;;1.80;1.70;;;;;;;;;;5029685;28;20140;-59
2023/11/13 07:16:45;;;;;;;1.60;1.60;;;;;;;;;;5030339;28;20041;-61
2023/11/13 07:19:16;;;;;;;1.90;1.80;;;;;;;;;;5028956;28;20045;-61
2023/11/13 07:21:44;;;;;;;1.70;1.70;;;;;;;;;;5028442;28;20042;-60
2023/11/13 07:24:13;;;;;;;1.92;1.83;;;;;;;;;;5029026;28;20073;-59
2023/11/13 07:26:41;;;;;;;2.97;1.90;;;;;;;;;;5028040;28;20049;-59
2023/11/13 07:29:10;;;;;;;1.70;1.60;;;;;;;;;;5028865;28;20100;-59
2023/11/13 07:31:38;;;;;;;2.65;1.67;;;;;;;;;;5027954;28;20050;-60
2023/11/13 07:34:10;;;;;;;1.88;1.77;;;;;;;;;;5026273;28;20076;-59
2023/11/13 07:36:40;;;;;;;1.67;1.60;;;;;;;;;;5021806;28;20053;-59
2023/11/13 07:39:09;;;;;;;1.90;1.80;;;;;;;;;;5027993;28;20045;-59
2023/11/13 07:41:38;;;;;;;1.80;1.70;;;;;;;;;;5025932;28;20051;-62
2023/11/13 07:44:07;;;;;;;2.35;1.67;;;;;;;;;;5027323;28;20111;-60
2023/11/13 07:46:35;;;;;;;1.70;1.60;;;;;;;;;;5017024;28;20111;-62
2023/11/13 07:49:04;;;;;;;1.70;1.60;;;;;;;;;;5024218;28;20045;-61
2023/11/13 07:51:32;;;;;;;1.80;1.70;;;;;;;;;;5026648;28;20049;-60
2023/11/13 07:54:04;;;;;;;1.60;1.60;;;;;;;;;;5022640;28;20049;-60
2023/11/13 07:56:32;;;;;;;1.77;1.67;;;;;;;;;;5022788;28;20148;-61
2023/11/13 07:59:05;;;;;;;1.80;1.70;;;;;;;;;;5027743;28;20132;-64
2023/11/13 08:01:33;;;;;;;1.90;1.80;;;;;;;;;;5027368;28;20123;-61
2023/11/13 08:04:03;;;;;;;1.73;1.63;;;;;;;;;;5021646;28;20633;-59
2023/11/13 08:06:31;;;;;;;1.65;1.55;;;;;;;;;;5028134;28;20076;-60
2023/11/13 08:08:59;;;;;;;2.17;2.08;;;;;;;;;;5043342;28;20114;-64
2023/11/13 08:11:29;;;;;;;1.70;1.60;;;;;;;;;;5042124;28;20048;-60
2023/11/13 08:13:59;;;;;;;1.92;1.83;;;;;;;;;;5047399;28;20099;-60
2023/11/13 08:16:28;;;;;;;1.73;1.63;;;;;;;;;;5047308;28;20531;-60
2023/11/13 08:18:57;;;;;;;1.73;1.63;;;;;;;;;;5030829;28;20061;-60
2023/11/13 08:21:25;;;;;;;1.92;1.83;;;;;;;;;;5028045;28;20339;-61
2023/11/13 08:23:53;;;;;;;1.70;1.60;;;;;;;;;;5027260;28;20741;-60
2023/11/13 08:26:27;;;;;;;1.70;1.60;;;;;;;;;;5026212;28;20124;-60
2023/11/13 08:28:58;;;;;;;2.05;1.85;;;;;;;;;;5027501;28;20046;-62
2023/11/13 08:31:26;;;;;;;2.15;1.60;;;;;;;;;;5026892;28;20127;-61
2023/11/13 08:33:56;;;;;;;1.58;1.58;;;;;;;;;;5026385;28;20087;-61
2023/11/13 08:36:26;;;;;;;1.60;1.50;;;;;;;;;;5026483;28;20041;-62
2023/11/13 08:38:55;;;;;;;3.92;1.70;;;;;;;;;;5027274;28;20156;-59
2023/11/13 08:41:24;;;;;;;1.60;1.50;;;;;;;;;;5027345;28;20062;-62
2023/11/13 08:43:53;;;;;;;1.50;1.50;;;;;;;;;;5027338;28;20115;-60
2023/11/13 08:46:24;;;;;;;1.75;1.65;;;;;;;;;;5027233;28;20080;-63
2023/11/13 08:48:54;;;;;;;1.80;1.70;;;;;;;;;;5026155;28;20052;-62
2023/11/13 08:51:27;;;;;;;2.83;1.70;;;;;;;;;;5026603;28;20168;-62
2023/11/13 08:53:59;;;;;;;1.80;1.70;;;;;;;;;;5025953;28;20042;-64
2023/11/13 08:56:28;;;;;;;1.58;1.55;;;;;;;;;;5027153;28;20049;-61
2023/11/13 08:58:58;;;;;;;1.60;1.50;;;;;;;;;;5026005;28;20388;-64
2023/11/13 09:01:30;;;;;;;1.80;1.70;;;;;;;;;;5026182;28;20085;-61
2023/11/13 09:03:59;;;;;;;1.60;1.50;;;;;;;;;;5026765;28;20042;-59
2023/11/13 09:06:31;;;;;;;1.67;1.60;;;;;;;;;;5026262;28;20495;-62
2023/11/13 09:09:01;;;;;;;1.80;1.70;;;;;;;;;;5022240;28;20053;-59
2023/11/13 09:11:30;;;;;;;1.80;1.70;;;;;;;;;;5027212;28;20115;-59
2023/11/13 09:14:00;;;;;;;1.70;1.60;;;;;;;;;;5027110;28;20053;-59
2023/11/13 09:16:29;;;;;;;2.03;1.83;;;;;;;;;;5014151;28;20041;-59
2023/11/13 09:19:00;;;;;;;1.80;1.70;;;;;;;;;;5027038;28;20058;-60
2023/11/13 09:21:29;;;;;;;1.80;1.70;;;;;;;;;;5020614;28;20465;-63
2023/11/13 09:23:57;;;;;;;1.65;1.55;;;;;;;;;;5019870;28;20057;-64
2023/11/13 09:26:26;;;;;;;1.90;1.80;;;;;;;;;;5028628;28;20160;-65
2023/11/13 09:28:55;;;;;;;1.50;1.50;;;;;;;;;;5031112;28;20053;-64
2023/11/13 09:31:24;;;;;;;2.50;1.67;;;;;;;;;;5028637;28;20049;-65
2023/11/13 09:33:53;;;;;;;1.75;1.65;;;;;;;;;;5024218;28;20056;-65
2023/11/13 09:36:22;;;;;;;1.80;1.70;;;;;;;;;;5018477;28;20053;-64
2023/11/13 09:38:53;;;;;;;1.50;1.50;;;;;;;;;;5026460;28;20564;-66
2023/11/13 09:41:24;;;;;;;2.10;1.90;;;;;;;;;;5029684;28;20053;-66
2023/11/13 09:43:53;;;;;;;1.88;1.77;;;;;;;;;;5023223;28;20045;-69
2023/11/13 09:46:23;;;;;;;1.80;1.70;;;;;;;;;;5027817;28;20072;-66
2023/11/13 09:48:55;;;;;;;1.63;1.52;;;;;;;;;;5030332;28;20341;-65
2023/11/13 09:51:24;;;;;;;1.83;1.63;;;;;;;;;;5028481;28;20049;-65
2023/11/13 09:53:58;;;;;;;1.65;1.55;;;;;;;;;;5019412;28;20064;-66
2023/11/13 09:56:29;;;;;;;1.70;1.60;;;;;;;;;;5020015;28;20593;-66
2023/11/13 09:58:59;;;;;;;4.93;1.80;;;;;;;;;;5025255;28;20132;-65
2023/11/13 10:01:28;;;;;;;1.65;1.55;;;;;;;;;;5025830;28;20045;-67
2023/11/13 10:04:01;;;;;;;1.85;1.75;;;;;;;;;;5022621;28;20119;-66
2023/11/13 10:06:31;;;;;;;1.90;1.80;;;;;;;;;;5028678;28;20057;-65
2023/11/13 10:08:59;;;;;;;1.70;1.60;;;;;;;;;;5026482;28;20041;-66
2023/11/13 10:11:29;;;;;;;2.72;1.80;;;;;;;;;;5027186;28;20055;-66
2023/11/13 10:14:11;;;;;;;1.90;1.80;;;;;;;;;;5023763;28;20510;-65
2023/11/13 10:16:39;;;;;;;1.60;1.60;;;;;;;;;;5026536;28;20483;-65
2023/11/13 10:19:16;;;;;;;2.97;1.80;;;;;;;;;;5024154;28;20051;-66
2023/11/13 10:21:45;;;;;;;1.98;1.88;;;;;;;;;;5025285;28;20132;-65
2023/11/13 10:24:16;;;;;;;2.00;1.77;;;;;;;;;;5028218;28;20060;-65
2023/11/13 10:26:58;;;;;;;2.00;1.70;;;;;;;;;;5028747;28;20403;-66
2023/11/13 10:29:30;;;;;;;1.70;1.65;;;;;;;;;;5029297;28;20092;-65
2023/11/13 10:31:58;;;;;;;2.15;1.60;;;;;;;;;;5026540;28;20060;-66
2023/11/13 10:34:41;;;;;;;1.65;1.60;;;;;;;;;;5027759;28;20045;-65
2023/11/13 10:37:11;;;;;;;1.95;1.85;;;;;;;;;;5024220;28;20470;-64
2023/11/13 10:39:42;;;;;;;2.50;1.60;;;;;;;;;;5026053;28;20042;-65
2023/11/13 10:42:18;;;;;;;1.83;1.73;;;;;;;;;;5029916;28;20137;-65
2023/11/13 10:44:47;;;;;;;1.90;1.80;;;;;;;;;;5025438;28;20270;-66
2023/11/13 10:47:23;;;;;;;2.08;1.95;;;;;;;;;;5028174;28;20053;-65
2023/11/13 10:49:54;;;;;;;1.92;1.83;;;;;;;;;;5030039;28;20037;-65
2023/11/13 10:52:22;;;;;;;4.47;1.80;;;;;;;;;;5029114;28;20045;-65
2023/11/13 10:54:53;;;;;;;2.55;2.08;;;;;;;;;;5027674;28;20506;-65
2023/11/13 10:57:22;;;;;;;1.83;1.73;;;;;;;;;;5029092;28;20045;-64
2023/11/13 10:59:53;;;;;;;1.63;1.60;;;;;;;;;;5028501;28;20045;-66
2023/11/13 11:02:26;;;;;;;1.75;1.65;;;;;;;;;;5029450;28;20232;-65
2023/11/13 11:04:57;;;;;;;1.80;1.70;;;;;;;;;;5028684;28;20115;-64
2023/11/13 11:07:27;;;;;;;1.83;1.73;;;;;;;;;;5024236;28;20251;-70
2023/11/13 11:09:59;;;;;;;1.75;1.65;;;;;;;;;;5027974;28;20049;-65
2023/11/13 11:12:31;;;;;;;2.00;1.73;;;;;;;;;;5028468;28;20049;-65
2023/11/13 11:15:06;;;;;;;2.05;1.95;;;;;;;;;;5027943;28;20072;-65
2023/11/13 11:17:36;;;;;;;1.70;1.60;;;;;;;;;;5028947;28;20057;-65
2023/11/13 11:20:09;;;;;;;2.17;2.00;;;;;;;;;;5027461;28;20045;-66
2023/11/13 11:22:44;;;;;;;1.70;1.60;;;;;;;;;;5027960;28;20068;-65
2023/11/13 11:25:22;;;;;;;1.90;1.80;;;;;;;;;;5028589;28;20049;-64
2023/11/13 11:27:51;;;;;;;1.70;1.60;;;;;;;;;;5027548;28;20501;-64
2023/11/13 11:30:32;;;;;;;1.80;1.70;;;;;;;;;;5026783;28;20049;-64
2023/11/13 11:33:02;;;;;;;1.73;1.63;;;;;;;;;;5022256;28;20047;-64
2023/11/13 11:35:37;;;;;;;1.80;1.70;;;;;;;;;;5028923;28;20054;-65
2023/11/13 11:38:05;;;;;;;;;;;;;;;;;;5028450;28;20056;-64
2023/11/13 11:40:34;;;;;;;1.80;1.70;;;;;;;;;;5027723;28;20370;-64
2023/11/13 11:43:04;;;;;;;1.60;1.50;;;;;;;;;;5025942;28;20060;-65
2023/11/13 11:45:32;;;;;;;1.88;1.77;;;;;;;;;;5020046;28;20042;-64
2023/11/13 11:48:05;;;;;;;1.42;1.42;;;;;;;;;;5025858;28;20065;-63
2023/11/13 11:50:35;;;;;;;1.63;1.60;;;;;;;;;;5023491;28;20048;-64
2023/11/13 11:53:03;;;;;;;1.70;1.60;;;;;;;;;;5023031;28;20053;-62
2023/11/13 11:55:31;;;;;;;1.80;1.67;;;;;;;;;;5028252;28;20533;-64
2023/11/13 11:58:01;;;;;;;2.10;1.90;;;;;;;;;;5027855;28;20497;-64
2023/11/13 12:00:31;;;;;;;1.70;1.60;;;;;;;;;;5026076;28;20057;-66
2023/11/13 12:02:59;;;;;;;1.50;1.50;;;;;;;;;;5027109;28;20053;-66
2023/11/13 12:05:28;;;;;;;1.85;1.75;;;;;;;;;;5025994;28;21978;-64
2023/11/13 12:07:58;;;;;;;1.83;1.50;;;;;;;;;;5026903;28;20057;-64
2023/11/13 12:10:26;;;;;;;3.17;2.20;;;;;;;;;;5027953;28;20053;-63
2023/11/13 12:12:55;;;;;;;1.80;1.70;;;;;;;;;;5027612;28;20045;-63
2023/11/13 12:15:25;;;;;;;1.90;1.80;;;;;;;;;;5027082;28;20111;-62
2023/11/13 12:17:54;;;;;;;1.85;1.70;;;;;;;;;;5021539;28;20134;-64
2023/11/13 12:20:23;;;;;;;1.90;1.80;;;;;;;;;;5014811;28;20060;-64
2023/11/13 12:22:55;;;;;;;2.13;1.77;;;;;;;;;;5024840;28;20497;-65
2023/11/13 12:25:25;;;;;;;1.60;1.50;;;;;;;;;;5027485;28;20064;-65
2023/11/13 12:27:55;;;;;;;1.80;1.70;;;;;;;;;;5024868;28;20132;-64
2023/11/13 12:30:26;;;;;;;1.88;1.77;;;;;;;;;;5012859;28;20103;-65
2023/11/13 12:32:56;;;;;;;1.80;1.70;;;;;;;;;;5025281;28;20422;-65
2023/11/13 12:35:25;;;;;;;1.67;1.60;;;;;;;;;;5026446;28;20056;-62
2023/11/13 12:37:54;;;;;;;1.70;1.60;;;;;;;;;;5026461;28;20045;-64
2023/11/13 12:40:22;;;;;;;2.00;1.80;;;;;;;;;;5022170;28;20046;-65
2023/11/13 12:42:52;;;;;;;1.98;1.88;;;;;;;;;;5025467;28;20065;-66
2023/11/13 12:45:21;;;;;;;2.45;1.90;;;;;;;;;;5024057;28;20049;-66
2023/11/13 12:47:51;;;;;;;2.13;1.92;;;;;;;;;;5025812;28;20049;-63
2023/11/13 12:50:20;;;;;;;1.98;1.88;;;;;;;;;;5028124;28;20060;-64
2023/11/13 12:52:50;;;;;;;3.83;1.80;;;;;;;;;;5016426;28;20045;-65
2023/11/13 12:55:19;;;;;;;3.42;1.95;;;;;;;;;;5015498;28;20340;-63
2023/11/13 12:57:49;;;;;;;2.22;1.80;;;;;;;;;;5023691;28;20507;-65
2023/11/13 13:00:19;;;;;;;1.98;1.75;;;;;;;;;;5027833;28;20471;-63
2023/11/13 13:02:49;;;;;;;3.50;2.05;;;;;;;;;;5026210;28;20049;-63
2023/11/13 13:05:19;;;;;;;2.97;1.98;;;;;;;;;;5028578;28;20057;-63
2023/11/13 13:07:59;;;;;;;1.85;1.75;;;;;;;;;;5027997;28;20049;-65
2023/11/13 13:10:30;;;;;;;1.83;1.73;;;;;;;;;;5027583;28;20091;-63
2023/11/13 13:13:04;;;;;;;2.13;1.98;;;;;;;;;;5026965;28;20103;-64
2023/11/13 13:15:35;;;;;;;3.08;1.70;;;;;;;;;;5025249;28;20045;-65
2023/11/13 13:18:03;;;;;;;1.90;1.80;;;;;;;;;;5026697;28;20462;-62
2023/11/13 13:20:33;;;;;;;1.90;1.80;;;;;;;;;;5029485;28;20594;-65
2023/11/13 13:23:03;;;;;;;1.92;1.83;;;;;;;;;;5026498;28;20144;-63
2023/11/13 13:25:34;;;;;;;1.90;1.80;;;;;;;;;;5025934;28;20097;-70
2023/11/13 13:28:06;;;;;;;1.90;1.80;;;;;;;;;;5026348;28;20061;-67
2023/11/13 13:30:36;;;;;;;1.98;1.88;;;;;;;;;;5027405;28;20506;-64
2023/11/13 13:33:09;;;;;;;1.90;1.80;;;;;;;;;;5027388;28;20419;-67
2023/11/13 13:35:39;;;;;;;1.95;1.80;;;;;;;;;;5019870;28;20069;-69
2023/11/13 13:38:07;;;;;;;3.10;2.17;;;;;;;;;;5026655;28;20060;-65
2023/11/13 13:40:39;;;;;;;2.10;1.90;;;;;;;;;;5027989;28;20049;-64
2023/11/13 13:43:07;;;;;;;1.90;1.80;;;;;;;;;;5028077;28;20053;-67
2023/11/13 13:45:40;;;;;;;1.90;1.80;;;;;;;;;;5028845;28;20045;-64
2023/11/13 13:48:09;;;;;;;2.00;1.90;;;;;;;;;;5026363;28;20103;-65
2023/11/13 13:50:38;;;;;;;3.22;1.98;;;;;;;;;;5025428;28;20146;-64
2023/11/13 13:53:07;;;;;;;2.05;1.95;;;;;;;;;;5019839;28;20637;-67
2023/11/13 13:55:38;;;;;;;2.03;1.92;;;;;;;;;;5017908;28;20049;-68
2023/11/13 13:58:07;;;;;;;2.25;1.80;;;;;;;;;;5015293;28;20303;-69
2023/11/13 14:00:39;;;;;;;2.00;1.90;;;;;;;;;;5024880;28;20045;-65
2023/11/13 14:03:08;;;;;;;1.80;1.70;;;;;;;;;;5026191;28;20041;-64
2023/11/13 14:05:42;;;;;;;2.05;1.95;;;;;;;;;;5018479;28;20049;-69
2023/11/13 14:08:14;;;;;;;2.20;2.10;;;;;;;;;;5018868;28;20420;-68
2023/11/13 14:10:48;;;;;;;1.73;1.63;;;;;;;;;;5025774;28;20056;-66
2023/11/13 14:13:17;;;;;;;2.47;2.17;;;;;;;;;;5026686;28;20053;-63
2023/11/13 14:15:47;;;;;;;1.80;1.70;;;;;;;;;;5028161;28;20473;-63
2023/11/13 14:18:35;;;;;;;2.13;1.80;;;;;;;;;;5022558;28;20140;-67
2023/11/13 14:21:05;;;;;;;2.08;1.98;;;;;;;;;;5023613;28;20081;-67
2023/11/13 14:23:33;;;;;;;1.80;1.70;;;;;;;;;;5027507;28;20052;-64
2023/11/13 14:26:02;;;;;;;2.00;1.90;;;;;;;;;;5018065;28;20054;-65
2023/11/13 14:28:31;;;;;;;1.90;1.80;;;;;;;;;;5025902;28;20147;-67
2023/11/13 14:31:02;;;;;;;2.55;2.35;;;;;;;;;;5023231;28;20183;-64
2023/11/13 14:33:31;;;;;;;1.98;1.85;;;;;;;;;;5025996;28;20053;-64
2023/11/13 14:35:59;;;;;;;1.95;1.85;;;;;;;;;;5028261;28;20107;-62
2023/11/13 14:38:28;;;;;;;1.90;1.80;;;;;;;;;;5025985;28;20396;-62
2023/11/13 14:40:56;;;;;;;1.75;1.70;;;;;;;;;;5028697;28;20053;-65
2023/11/13 14:43:24;;;;;;;2.00;1.90;;;;;;;;;;5028820;28;20103;-63
2023/11/13 14:45:54;;;;;;;2.13;2.00;;;;;;;;;;5025534;28;20164;-67
2023/11/13 14:48:23;;;;;;;1.90;1.80;;;;;;;;;;5032835;28;20132;-67
2023/11/13 14:50:53;;;;;;;2.13;1.90;;;;;;;;;;5025879;28;20149;-65
2023/11/13 14:53:21;;;;;;;1.90;1.80;;;;;;;;;;5027900;28;20064;-65
2023/11/13 14:55:50;;;;;;;1.90;1.80;;;;;;;;;;5027166;28;20558;-66